Metar z połowy godziny Komunikat METAR ze strony awiacja.imgw.pl Metar Mil EPOK METAR EPOK 261230Z 30013KT 9999 FEW021 OVC026 01/M03 Q1004 RMK 013 075 8/2=